Time;durP1;ratioP1;P1;durP2;ratioP2;P2;SDS_P1;SDS_P2;PMS_P1;PMS_P2;Temp;Humidity;BMP_temperature;BMP_pressure;BME280_temperature;BME280_humidity;BME280_pressure;Samples;Min_cycle;Max_cycle;Signal;HPM_P1;HPM_P2
2021/11/09 00:01:05;;;;;;;4.90;2.50;;;;;;;16.47;67.52;101259.69;4862975;29;20033;-96
2021/11/09 00:03:35;;;;;;;5.50;2.08;;;;;;;16.33;67.65;101252.84;4862521;29;20088;-96
2021/11/09 00:06:22;;;;;;;5.50;1.80;;;;;;;16.38;67.30;101252.47;4862896;29;20094;-96
2021/11/09 00:08:54;;;;;;;2.13;1.38;;;;;;;16.03;68.80;101256.91;4863219;29;20081;-96
2021/11/09 00:11:19;;;;;;;4.90;1.92;;;;;;;16.19;68.21;101251.28;4862626;29;20038;-96
2021/11/09 00:13:45;;;;;;;1.70;1.60;;;;;;;16.17;68.18;101252.34;4862749;29;20030;-96
2021/11/09 00:16:11;;;;;;;3.55;1.38;;;;;;;16.23;67.91;101244.78;4864619;29;20501;-96
2021/11/09 00:18:37;;;;;;;5.03;1.65;;;;;;;16.19;67.97;101245.97;4862752;29;20025;-96
2021/11/09 00:21:03;;;;;;;3.42;1.67;;;;;;;15.98;68.69;101245.00;4862772;29;20033;-96
2021/11/09 00:23:28;;;;;;;2.08;1.60;;;;;;;16.06;68.56;101229.34;4862760;29;20030;-96
2021/11/09 00:25:53;;;;;;;4.03;1.42;;;;;;;16.06;68.55;101234.63;4863064;29;20033;-96
2021/11/09 00:28:19;;;;;;;4.38;1.48;;;;;;;16.06;68.34;101226.69;4863593;29;20034;-96
2021/11/09 00:30:44;;;;;;;3.25;1.35;;;;;;;16.02;68.38;101222.59;4864264;29;20128;-96
2021/11/09 00:33:10;;;;;;;4.50;1.70;;;;;;;15.99;68.57;101222.81;4865032;29;20026;-96
2021/11/09 00:35:36;;;;;;;3.33;1.60;;;;;;;16.02;68.32;101225.25;4869662;29;20021;-96
2021/11/09 00:38:04;;;;;;;2.63;1.60;;;;;;;15.94;68.46;101217.06;4870404;29;20034;-95
2021/11/09 00:40:32;;;;;;;3.67;1.40;;;;;;;15.94;68.53;101214.41;4867176;29;20093;-96
2021/11/09 00:42:59;;;;;;;2.25;1.50;;;;;;;15.88;68.07;101209.56;4861438;29;20345;-96
2021/11/09 00:45:25;;;;;;;2.95;1.60;;;;;;;15.84;68.18;101214.28;4868273;29;20030;-96
2021/11/09 00:47:51;;;;;;;3.08;1.48;;;;;;;15.82;68.24;101216.22;4869627;29;20037;-95
2021/11/09 00:50:19;;;;;;;1.85;1.20;;;;;;;15.80;68.07;101212.84;4878257;29;20088;-96
2021/11/09 00:52:45;;;;;;;3.13;1.75;;;;;;;15.73;68.14;101216.91;4884542;29;20031;-96
2021/11/09 00:55:15;;;;;;;1.63;1.38;;;;;;;15.77;68.18;101218.34;4882978;29;20024;-96
2021/11/09 00:57:42;;;;;;;4.95;2.00;;;;;;;15.79;68.16;101216.44;4884099;29;20037;-96
2021/11/09 01:00:10;;;;;;;3.38;2.00;;;;;;;15.65;68.30;101220.09;4885312;29;20046;-96
2021/11/09 01:02:35;;;;;;;3.33;1.90;;;;;;;15.65;68.39;101214.81;4883419;29;20041;-96
2021/11/09 01:05:01;;;;;;;4.05;1.90;;;;;;;15.63;68.25;101211.44;4883340;29;20107;-96
2021/11/09 01:07:27;;;;;;;2.92;1.92;;;;;;;15.58;68.55;101213.56;4866809;29;20086;-96
2021/11/09 01:09:52;;;;;;;1.98;1.63;;;;;;;15.57;68.43;101217.19;4865374;29;20041;-96
2021/11/09 01:12:17;;;;;;;5.25;2.05;;;;;;;15.56;68.77;101212.84;4863723;29;20480;-96
2021/11/09 01:14:43;;;;;;;6.95;2.15;;;;;;;15.48;68.50;101216.06;4863410;29;20121;-96
2021/11/09 01:17:09;;;;;;;5.97;2.35;;;;;;;15.53;68.87;101221.03;4861672;29;20057;-96
2021/11/09 01:19:35;;;;;;;7.45;2.90;;;;;;;15.49;69.17;101224.88;4863022;29;20062;-96
2021/11/09 01:22:01;;;;;;;4.43;2.28;;;;;;;15.52;69.15;101222.84;4861233;29;20034;-96
2021/11/09 01:24:27;;;;;;;6.13;2.38;;;;;;;15.60;69.09;101217.81;4863297;29;20086;-95
2021/11/09 01:26:53;;;;;;;3.75;2.20;;;;;;;15.53;69.30;101215.75;4868365;29;20033;-96
2021/11/09 01:29:18;;;;;;;4.80;2.17;;;;;;;15.58;69.43;101210.94;4866228;29;20049;-96
2021/11/09 01:31:44;;;;;;;3.83;2.40;;;;;;;15.47;69.92;101219.69;4865339;29;20030;-96
2021/11/09 01:34:10;;;;;;;5.68;2.17;;;;;;;15.54;69.58;101220.06;4865220;29;20025;-96
2021/11/09 01:36:35;;;;;;;6.90;2.40;;;;;;;15.66;69.02;101216.50;4862886;29;20460;-96
2021/11/09 01:39:03;;;;;;;3.80;2.30;;;;;;;15.65;69.18;101220.94;4864434;29;20041;-96
2021/11/09 01:41:29;;;;;;;6.68;2.30;;;;;;;15.71;68.77;101224.09;4863736;29;20034;-96
2021/11/09 01:43:55;;;;;;;7.88;2.33;;;;;;;15.66;68.78;101227.94;4864666;29;20033;-96
2021/11/09 01:46:21;;;;;;;5.18;2.40;;;;;;;15.65;68.50;101225.41;4864626;29;20025;-96
2021/11/09 01:48:47;;;;;;;5.78;2.33;;;;;;;15.75;68.57;101221.09;4863633;29;20034;-96
2021/11/09 01:51:15;;;;;;;4.60;2.10;;;;;;;15.71;68.85;101216.97;4865570;29;20109;-96
2021/11/09 01:53:42;;;;;;;13.38;2.63;;;;;;;15.63;69.05;101224.69;4861922;29;20433;-96
2021/11/09 01:56:12;;;;;;;5.32;2.45;;;;;;;15.79;68.53;101222.56;4862147;29;20026;-96
2021/11/09 01:58:37;;;;;;;6.03;2.05;;;;;;;15.78;68.49;101215.59;4862505;29;20026;-96
2021/11/09 02:01:09;;;;;;;4.10;1.98;;;;;;;15.76;68.76;101214.88;4869922;29;20445;-96
2021/11/09 02:03:37;;;;;;;3.97;2.35;;;;;;;15.86;68.67;101215.84;4874704;29;20053;-96
2021/11/09 02:06:03;;;;;;;8.15;2.60;;;;;;;15.85;68.60;101216.78;4877737;29;20112;-96
2021/11/09 02:08:28;;;;;;;6.75;2.70;;;;;;;15.85;68.85;101216.78;4878914;29;20029;-96
2021/11/09 02:10:55;;;;;;;7.63;2.80;;;;;;;15.98;68.38;101211.41;4875718;29;20034;-96
2021/11/09 02:13:22;;;;;;;5.95;2.30;;;;;;;16.04;68.52;101216.22;4878516;29;20030;-96
2021/11/09 02:15:49;;;;;;;8.10;2.58;;;;;;;15.98;68.82;101215.84;4882188;29;20085;-96
2021/11/09 02:18:16;;;;;;;6.65;2.33;;;;;;;15.98;68.57;101215.84;4885135;29;20366;-96
2021/11/09 02:21:11;;;;;;;6.28;2.00;;;;;;;16.04;68.45;101212.72;4867994;29;20029;-96
2021/11/09 02:23:41;;;;;;;5.88;2.63;;;;;;;15.88;68.80;101209.56;4865661;29;20111;-96
2021/11/09 02:26:06;;;;;;;5.40;2.38;;;;;;;16.08;68.44;101206.22;4865435;29;20033;-96
2021/11/09 02:28:32;;;;;;;7.07;2.42;;;;;;;16.01;68.30;101205.84;4865118;29;20029;-96
2021/11/09 02:30:58;;;;;;;4.03;2.17;;;;;;;16.06;67.86;101205.50;4864880;29;20036;-96
2021/11/09 02:33:23;;;;;;;3.80;1.70;;;;;;;16.11;68.10;101205.97;4864303;29;20033;-96
2021/11/09 02:35:49;;;;;;;3.65;2.08;;;;;;;16.06;68.06;101205.50;4864201;29;20065;-96
2021/11/09 02:38:15;;;;;;;2.78;1.88;;;;;;;16.00;68.03;101205.97;4864212;29;20475;-96
2021/11/09 02:40:41;;;;;;;7.93;2.10;;;;;;;15.93;68.05;101202.94;4864282;29;20026;-96
2021/11/09 02:43:10;;;;;;;5.13;1.90;;;;;;;15.98;67.99;101202.63;4864119;29;20037;-96
2021/11/09 02:48:37;;;;;;;4.32;2.28;;;;;;;15.95;67.68;101198.38;4864222;29;20040;-96
2021/11/09 02:51:09;;;;;;;6.57;1.60;;;;;;;15.85;67.74;101200.91;4863831;29;20025;-96
2021/11/09 02:53:44;;;;;;;5.30;2.17;;;;;;;15.71;68.48;101203.75;4865738;29;20030;-96
2021/11/09 03:03:41;;;;;;;6.20;1.73;;;;;;;15.94;67.97;101209.13;4867497;29;20016;-95
2021/11/09 03:11:32;;;;;;;1.75;1.33;;;;;;;16.05;67.87;101204.66;4870774;29;20033;-91
2021/11/09 03:13:58;;;;;;;2.33;1.25;;;;;;;16.17;67.65;101194.91;4875042;29;20041;-89
2021/11/09 03:16:26;;;;;;;2.22;1.52;;;;;;;16.12;67.50;101191.78;4881748;29;20037;-90
2021/11/09 03:19:02;;;;;;;4.28;1.30;;;;;;;16.12;67.57;101191.78;4875890;29;20056;-90
2021/11/09 03:40:38;;;;;;;4.10;1.40;;;;;;;16.19;66.85;101195.63;4869188;29;20094;-90
2021/11/09 03:45:40;;;;;;;4.43;1.60;;;;;;;16.13;66.70;101192.59;4896505;23;20060;-91
2021/11/09 03:48:16;;;;;;;2.85;1.25;;;;;;;16.19;66.85;101192.13;4908260;29;20136;-93
2021/11/09 03:50:50;;;;;;;2.88;1.30;;;;;;;16.19;66.79;101187.69;4967812;23;20040;-93
2021/11/09 03:53:19;;;;;;;4.03;1.52;;;;;;;16.16;66.79;101193.22;4889840;29;20410;-93
2021/11/09 04:00:54;;;;;;;6.22;1.25;;;;;;;16.13;66.52;101193.44;4892280;29;20045;-96
2021/11/09 04:05:54;;;;;;;2.85;1.33;;;;;;;16.07;66.97;101191.28;4887745;29;20036;-94
2021/11/09 04:16:29;;;;;;;5.15;1.75;;;;;;;15.97;66.84;101185.03;4885800;29;20044;-93
2021/11/09 05:03:06;;;;;;;2.17;1.00;;;;;;;15.40;66.09;101178.78;4897892;29;20039;-94
2021/11/09 05:08:39;;;;;;;3.95;1.52;;;;;;;15.24;66.48;101187.91;4879045;29;20575;-95
2021/11/09 05:11:03;;;;;;;2.97;1.30;;;;;;;15.26;66.21;101188.63;4878731;29;20032;-94
2021/11/09 05:13:29;;;;;;;2.97;1.30;;;;;;;15.22;66.22;101187.13;4893883;29;20085;-96
2021/11/09 05:15:55;;;;;;;4.82;1.60;;;;;;;15.17;66.09;101194.59;4908976;29;20060;-95
2021/11/09 05:18:22;;;;;;;4.93;1.08;;;;;;;15.08;66.25;101189.97;4897312;29;20047;-96
2021/11/09 05:20:47;;;;;;;2.38;1.27;;;;;;;15.09;66.47;101186.38;4905433;29;20040;-96
2021/11/09 05:23:13;;;;;;;3.85;1.13;;;;;;;15.03;66.72;101187.69;4907077;29;20436;-96
2021/11/09 05:25:38;;;;;;;3.75;1.55;;;;;;;15.03;66.32;101184.22;4891904;29;20037;-95
2021/11/09 05:28:07;;;;;;;5.00;1.80;;;;;;;14.86;66.90;101183.63;4897168;29;20037;-96
2021/11/09 05:30:33;;;;;;;4.10;1.17;;;;;;;14.97;66.82;101177.56;4897789;29;20034;-96
2021/11/09 05:33:00;;;;;;;5.90;1.45;;;;;;;14.93;66.49;101181.41;4896729;29;20053;-96
2021/11/09 05:35:27;;;;;;;2.85;1.60;;;;;;;14.90;67.20;101175.50;4892638;29;20020;-96
2021/11/09 05:37:54;;;;;;;2.72;1.52;;;;;;;14.88;67.16;101186.16;4894888;29;20025;-96
2021/11/09 05:40:27;;;;;;;3.30;1.40;;;;;;;14.84;66.84;101190.84;4903521;29;20032;-96
2021/11/09 05:42:52;;;;;;;3.05;1.50;;;;;;;14.80;66.91;101191.19;4906443;29;20069;-96
2021/11/09 05:45:18;;;;;;;2.55;1.20;;;;;;;14.83;66.47;101196.22;4892679;29;20029;-96
2021/11/09 05:47:43;;;;;;;4.63;2.05;;;;;;;14.78;67.18;101193.94;4895211;29;20523;-96
2021/11/09 05:50:09;;;;;;;3.75;1.60;;;;;;;14.81;66.71;101204.28;4885677;29;20093;-96
2021/11/09 05:52:35;;;;;;;6.07;1.70;;;;;;;14.82;67.01;101202.50;4893429;29;20488;-96
2021/11/09 05:55:01;;;;;;;3.45;1.73;;;;;;;14.79;66.68;101200.06;4891717;29;20033;-96
2021/11/09 05:57:26;;;;;;;3.42;1.80;;;;;;;14.71;66.83;101207.72;4893266;29;20040;-96
2021/11/09 05:59:52;;;;;;;2.92;1.90;;;;;;;14.77;67.01;101205.47;4887841;29;20432;-96
2021/11/09 06:02:17;;;;;;;3.63;1.70;;;;;;;14.77;66.46;101202.84;4885534;29;20040;-96
2021/11/09 06:04:42;;;;;;;4.78;1.58;;;;;;;14.60;66.88;101211.13;4892142;29;20060;-96
2021/11/09 06:07:08;;;;;;;4.35;1.45;;;;;;;14.66;66.90;101208.88;4893787;29;20032;-96
2021/11/09 06:09:33;;;;;;;3.90;2.15;;;;;;;14.67;66.86;101202.66;4894609;29;20024;-96
2021/11/09 06:11:58;;;;;;;4.95;1.40;;;;;;;14.75;66.62;101210.03;4896348;29;20033;-96
2021/11/09 06:14:24;;;;;;;2.28;1.30;;;;;;;14.71;66.40;101218.28;4906742;29;20040;-96
2021/11/09 06:16:49;;;;;;;2.00;1.17;;;;;;;14.71;66.73;101213.00;4900175;29;20032;-96
2021/11/09 06:19:15;;;;;;;4.82;1.90;;;;;;;14.57;66.90;101216.63;4895671;29;20101;-96
2021/11/09 06:21:40;;;;;;;3.13;1.13;;;;;;;14.64;66.86;101224.00;4901251;29;20043;-96
2021/11/09 06:24:06;;;;;;;2.17;1.15;;;;;;;14.60;66.77;101221.72;4901125;29;20072;-96
2021/11/09 06:26:32;;;;;;;7.40;1.25;;;;;;;14.63;66.67;101221.47;4900650;29;20024;-96
2021/11/09 06:28:59;;;;;;;2.78;1.40;;;;;;;14.62;66.90;101217.16;4906223;29;20076;-96
2021/11/09 06:31:27;;;;;;;2.83;1.27;;;;;;;14.57;66.79;101221.91;4900856;29;20030;-96
2021/11/09 06:33:53;;;;;;;4.28;1.38;;;;;;;14.57;66.63;101219.28;4896412;29;20029;-96
2021/11/09 06:36:18;;;;;;;2.55;1.17;;;;;;;14.50;66.66;101226.78;4893457;29;20060;-96
2021/11/09 06:38:45;;;;;;;3.95;1.77;;;;;;;14.46;66.74;101220.84;4901048;29;20467;-96
2021/11/09 06:41:10;;;;;;;2.83;1.23;;;;;;;14.38;67.22;101222.38;4905358;29;20057;-96
2021/11/09 06:43:36;;;;;;;3.47;1.63;;;;;;;14.44;67.02;101220.13;4918118;29;20039;-96
2021/11/09 06:46:04;;;;;;;3.85;1.63;;;;;;;14.44;67.12;101222.78;4916628;29;20052;-96
2021/11/09 06:48:30;;;;;;;2.88;1.35;;;;;;;14.36;66.96;101224.28;4897209;29;20025;-96
2021/11/09 06:50:55;;;;;;;3.53;1.65;;;;;;;14.42;66.95;101229.13;4902664;29;20035;-96
2021/11/09 06:53:22;;;;;;;6.32;1.90;;;;;;;14.46;66.96;101231.44;4892442;29;20085;-95
2021/11/09 06:55:48;;;;;;;4.00;1.50;;;;;;;14.55;66.74;101229.91;4902611;29;20031;-96
2021/11/09 06:58:15;;;;;;;6.32;1.58;;;;;;;14.52;66.72;101227.50;4876535;29;20077;-96
2021/11/09 07:00:41;;;;;;;4.03;1.33;;;;;;;14.46;66.99;101231.44;4877327;29;20132;-96
2021/11/09 07:03:06;;;;;;;2.15;1.48;;;;;;;14.37;67.21;101236.53;4890380;29;20060;-96
2021/11/09 07:05:32;;;;;;;3.97;1.63;;;;;;;14.40;67.19;101234.50;4900520;29;20093;-96
2021/11/09 07:07:57;;;;;;;2.58;1.55;;;;;;;14.35;67.62;101233.16;4897410;29;20029;-95
2021/11/09 07:10:24;;;;;;;5.72;2.38;;;;;;;14.44;67.96;101233.34;4885011;29;20035;-95
2021/11/09 07:18:00;;;;;;;4.53;1.67;;;;;;;14.40;68.11;101239.78;4932022;23;20081;-96
2021/11/09 07:20:25;;;;;;;3.83;1.90;;;;;;;14.44;67.92;101237.78;5060254;23;20117;-96
2021/11/09 07:22:51;;;;;;;10.95;1.88;;;;;;;14.62;67.56;101255.00;4910121;23;20052;-96
2021/11/09 07:25:17;;;;;;;3.42;1.90;;;;;;;14.34;68.87;101247.31;5593241;23;21759;-94
2021/11/09 07:43:15;;;;;;;2.95;2.22;;;;;;;15.03;68.46;101271.47;5575927;23;20072;-96
2021/11/09 07:45:41;;;;;;;2.67;1.90;;;;;;;14.99;67.92;101264.72;4903167;29;20009;-96
2021/11/09 07:48:07;;;;;;;5.30;2.15;;;;;;;15.12;67.83;101269.94;4899791;29;20037;-96
2021/11/09 07:50:33;;;;;;;5.03;2.35;;;;;;;15.08;67.68;101256.94;5313756;23;20040;-96
2021/11/09 07:52:59;;;;;;;4.85;2.72;;;;;;;15.21;67.78;101264.84;5200923;23;20055;-96
2021/11/09 07:55:26;;;;;;;7.55;2.22;;;;;;;15.23;66.99;101246.22;5035933;23;20020;-96
2021/11/09 07:58:01;;;;;;;3.55;1.60;;;;;;;15.29;67.17;101251.03;5001256;23;20081;-96
2021/11/09 08:00:34;;;;;;;5.00;1.88;;;;;;;15.34;66.86;101254.16;4899151;29;20013;-95
2021/11/09 08:08:15;;;;;;;4.35;2.03;;;;;;;15.54;66.42;101273.00;5098019;23;20037;-94
2021/11/09 08:13:15;;;;;;;5.05;2.30;;;;;;;15.61;65.80;101269.78;5179676;23;20053;-96
2021/11/09 08:15:46;;;;;;;5.57;2.25;;;;;;;15.67;66.31;101268.47;5146220;23;21237;-96
2021/11/09 08:25:58;;;;;;;3.30;2.22;;;;;;;15.92;65.91;101271.97;4862036;29;20061;-96
2021/11/09 08:28:24;;;;;;;5.30;2.42;;;;;;;16.01;65.88;101256.16;4870941;29;20037;-95
2021/11/09 08:30:52;;;;;;;7.15;2.60;;;;;;;16.14;65.99;101268.50;4852785;29;20038;-96
2021/11/09 08:35:53;;;;;;;4.07;2.25;;;;;;;16.25;65.85;101272.00;5042373;23;20435;-95
2021/11/09 08:46:17;;;;;;;8.82;2.50;;;;;;;16.63;64.52;101265.47;5676712;23;20075;-96
2021/11/09 09:06:51;;;;;;;2.78;1.33;;;;;;;17.36;62.58;101262.28;5598000;23;20033;-96
2021/11/09 09:17:03;;;;;;;7.13;1.40;;;;;;;17.99;61.53;101268.47;5255947;23;20069;-96
2021/11/09 09:19:35;;;;;;;3.20;1.10;;;;;;;18.22;60.63;101273.59;4894096;29;20045;-96
2021/11/09 09:22:08;;;;;;;5.07;1.20;;;;;;;18.38;59.57;101266.00;4884721;29;20589;-96
2021/11/09 09:27:22;;;;;;;6.47;1.10;;;;;;;18.24;59.65;101264.50;4876039;29;20061;-96
2021/11/09 09:56:46;;;;;;;5.15;0.88;;;;;;;18.32;59.46;101297.56;4860534;29;20053;-96
2021/11/09 09:59:12;;;;;;;5.18;0.80;;;;;;;18.57;58.85;101297.13;4865812;29;20481;-95
2021/11/09 10:01:44;;;;;;;3.47;1.20;;;;;;;18.58;59.08;101298.81;4865779;29;20033;-96
2021/11/09 10:17:17;;;;;;;2.47;0.80;;;;;;;18.90;57.26;101287.19;4949351;23;20057;-96
2021/11/09 10:30:12;;;;;;;4.82;0.70;;;;;;;20.24;55.45;101292.69;5721535;23;20053;-96
2021/11/09 10:32:38;;;;;;;2.85;0.90;;;;;;;20.30;54.71;101284.13;5631172;23;20015;-96
2021/11/09 10:35:07;;;;;;;2.67;1.13;;;;;;;20.23;54.37;101275.88;4875444;29;20085;-96
2021/11/09 10:37:35;;;;;;;3.40;0.60;;;;;;;20.52;54.68;101286.41;4875309;29;20117;-96
2021/11/09 10:40:06;;;;;;;2.75;0.40;;;;;;;20.54;53.84;101281.78;4878702;29;20038;-96
2021/11/09 10:42:37;;;;;;;1.95;0.80;;;;;;;20.87;52.46;101281.34;4883008;29;20488;-95
2021/11/09 10:47:41;;;;;;;2.00;0.50;;;;;;;21.43;51.94;101279.41;5675776;23;20067;-96
2021/11/09 10:50:22;;;;;;;2.70;0.40;;;;;;;22.03;49.85;101284.84;4903942;29;20057;-96
2021/11/09 10:53:00;;;;;;;2.65;0.30;;;;;;;22.80;48.99;101274.19;4902933;29;20041;-96
2021/11/09 10:55:39;;;;;;;1.08;0.32;;;;;;;23.34;47.59;101282.69;4892608;29;20036;-96
2021/11/09 11:03:31;;;;;;;2.95;0.43;;;;;;;23.04;47.01;101275.28;4907601;29;20049;-96
2021/11/09 11:06:20;;;;;;;;;;;;;;;22.32;47.86;101286.41;4909341;29;20044;-96
2021/11/09 11:08:57;;;;;;;1.83;0.30;;;;;;;21.89;48.66;101269.41;4908275;29;19919;-96
2021/11/09 11:11:31;;;;;;;2.58;0.40;;;;;;;21.52;50.24;101271.28;4903458;29;20025;-96
2021/11/09 11:14:10;;;;;;;2.53;0.30;;;;;;;22.24;48.68;101272.97;4907995;29;20033;-96
2021/11/09 11:16:41;;;;;;;2.13;0.47;;;;;;;22.03;49.48;101282.19;4911072;29;20029;-96
2021/11/09 11:19:07;;;;;;;1.17;0.20;;;;;;;21.54;50.00;101280.03;4904944;29;20032;-96
2021/11/09 11:21:33;;;;;;;3.83;0.50;;;;;;;21.72;50.32;101266.63;4899857;29;20056;-96
2021/11/09 11:23:58;;;;;;;0.90;0.20;;;;;;;21.07;51.89;101263.34;4893364;29;20061;-96
2021/11/09 11:26:24;;;;;;;2.83;0.30;;;;;;;21.45;51.14;101261.41;4910379;29;20029;-96
2021/11/09 11:28:52;;;;;;;2.55;0.52;;;;;;;21.37;51.83;101265.66;4914440;29;20040;-96
2021/11/09 11:31:20;;;;;;;0.98;0.30;;;;;;;21.07;52.18;101269.56;5506521;23;20015;-96
2021/11/09 11:33:48;;;;;;;3.83;0.32;;;;;;;21.37;51.32;101284.34;5166005;23;20140;-96
2021/11/09 11:38:52;;;;;;;1.55;0.25;;;;;;;20.28;53.53;101257.63;5849965;23;20015;-95
2021/11/09 11:43:58;;;;;;;4.47;0.30;;;;;;;20.32;53.61;101247.47;4869594;29;20129;-96
2021/11/09 11:49:04;;;;;;;1.95;0.32;;;;;;;20.84;52.97;101257.63;5431237;23;20116;-96
2021/11/09 11:51:32;;;;;;;1.88;0.40;;;;;;;20.78;52.99;101254.56;4897522;29;20068;-96
2021/11/09 11:53:58;;;;;;;9.32;0.32;;;;;;;20.74;52.64;101260.34;4914955;29;20024;-96
2021/11/09 11:56:43;;;;;;;2.50;0.35;;;;;;;20.71;52.62;101253.47;4919465;29;20022;-96
2021/11/09 11:59:22;;;;;;;1.83;0.38;;;;;;;20.11;54.49;101251.22;4964320;23;20032;-96
2021/11/09 12:17:11;;;;;;;2.35;0.52;;;;;;;20.13;55.29;101233.25;5192432;23;20061;-96
2021/11/09 12:19:38;;;;;;;2.90;0.50;;;;;;;20.13;55.27;101230.56;5012052;23;20081;-96
2021/11/09 12:22:12;;;;;;;3.13;0.40;;;;;;;19.96;55.84;101213.53;4974502;23;20053;-95
2021/11/09 12:27:13;;;;;;;2.05;0.50;;;;;;;20.01;54.69;101210.44;5696743;23;20059;-96
2021/11/09 12:29:52;;;;;;;3.00;0.50;;;;;;;20.08;55.55;101213.34;5006783;23;20057;-96
2021/11/09 12:32:39;;;;;;;2.42;0.45;;;;;;;20.29;54.48;101210.44;5004575;23;20029;-95
2021/11/09 12:35:25;;;;;;;2.60;0.50;;;;;;;20.34;54.86;101214.34;5519220;23;20126;-95
2021/11/09 12:38:02;;;;;;;2.47;0.47;;;;;;;20.44;54.65;101208.97;4997874;23;20078;-95
2021/11/09 12:43:20;;;;;;;1.08;0.30;;;;;;;20.13;54.61;101211.91;5445803;23;20032;-91
2021/11/09 12:53:27;;;;;;;2.03;0.52;;;;;;;20.51;54.99;101198.53;5002980;23;20058;-95
2021/11/09 12:58:43;;;;;;;4.07;0.57;;;;;;;20.10;55.00;101200.69;4895726;23;20052;-96
2021/11/09 13:01:24;;;;;;;3.38;0.90;;;;;;;20.06;55.45;101210.81;4889278;29;20076;-96
2021/11/09 13:03:58;;;;;;;3.85;0.55;;;;;;;19.66;56.35;101203.91;4883694;29;20084;-96
2021/11/09 13:14:08;;;;;;;3.17;0.57;;;;;;;20.05;55.77;101195.00;5163761;23;20051;-96
2021/11/09 13:16:39;;;;;;;2.67;0.60;;;;;;;19.85;55.43;101183.56;4879563;29;20476;-96
2021/11/09 13:19:07;;;;;;;2.25;0.50;;;;;;;19.86;56.50;101196.72;4881072;29;20040;-96
2021/11/09 13:21:34;;;;;;;3.03;0.55;;;;;;;19.73;56.18;101204.22;4875845;29;20033;-96
2021/11/09 13:24:00;;;;;;;3.33;0.60;;;;;;;19.69;56.33;101203.63;4863023;29;20062;-96
2021/11/09 13:26:26;;;;;;;2.33;0.82;;;;;;;19.73;56.85;101189.06;4856683;29;20049;-96
2021/11/09 13:28:52;;;;;;;4.07;0.50;;;;;;;19.97;55.45;101193.88;4861345;29;20038;-96
2021/11/09 13:31:17;;;;;;;3.95;0.52;;;;;;;19.70;56.88;101185.81;4861407;29;20033;-96
2021/11/09 13:33:48;;;;;;;2.83;0.32;;;;;;;19.67;56.88;101194.06;4866116;29;20025;-96
2021/11/09 13:36:18;;;;;;;0.90;0.32;;;;;;;19.72;57.19;101192.69;4870927;29;20041;-96
2021/11/09 13:38:43;;;;;;;2.97;0.43;;;;;;;19.61;57.10;101193.69;4865897;29;20070;-96
2021/11/09 13:41:30;;;;;;;3.25;0.30;;;;;;;20.06;55.97;101191.31;4867740;29;20104;-96
2021/11/09 13:44:05;;;;;;;1.65;0.30;;;;;;;19.92;56.37;101182.81;4860796;29;20408;-96
2021/11/09 13:46:34;;;;;;;4.72;0.70;;;;;;;19.62;57.16;101186.53;4863249;29;20065;-93
2021/11/09 13:49:03;;;;;;;4.82;0.73;;;;;;;19.94;56.45;101180.00;4860351;29;20064;-96
2021/11/09 13:51:38;;;;;;;1.38;0.50;;;;;;;19.41;57.62;101179.56;4864678;29;20064;-96
2021/11/09 13:54:14;;;;;;;5.10;0.80;;;;;;;19.83;56.60;101177.50;4863916;29;20034;-96
2021/11/09 13:56:45;;;;;;;2.90;0.70;;;;;;;19.92;56.44;101173.97;4865037;29;20382;-96
2021/11/09 13:59:11;;;;;;;5.50;0.95;;;;;;;20.19;55.99;101178.50;4863305;29;20481;-96
2021/11/09 14:17:37;;;;;;;3.60;0.85;;;;;;;19.72;58.00;101168.72;4865860;29;20038;-96
2021/11/09 14:20:17;;;;;;;5.60;0.80;;;;;;;19.65;58.45;101169.41;4867780;29;20026;-96
2021/11/09 14:22:47;;;;;;;2.85;0.75;;;;;;;19.18;60.05;101173.72;4862662;29;20041;-95
2021/11/09 14:25:16;;;;;;;5.35;0.80;;;;;;;19.31;59.69;101176.09;4878314;29;20038;-95
2021/11/09 14:27:46;;;;;;;2.90;0.75;;;;;;;18.98;60.38;101170.22;4865764;29;20173;-96
2021/11/09 14:30:18;;;;;;;4.53;1.20;;;;;;;19.60;58.94;101161.84;4872761;29;20048;-95
2021/11/09 14:32:43;;;;;;;;;;;;;;;19.50;59.68;101158.38;4865415;29;20025;-95
2021/11/09 14:35:24;;;;;;;4.78;0.68;;;;;;;19.96;58.14;101173.56;4865140;29;19975;-95
2021/11/09 14:38:00;;;;;;;3.90;1.00;;;;;;;19.84;58.37;101168.53;4864810;29;20060;-95
2021/11/09 14:40:34;;;;;;;6.38;1.15;;;;;;;19.77;58.94;101169.13;4871275;29;20060;-95
2021/11/09 14:43:29;;;;;;;5.20;1.20;;;;;;;19.87;58.61;101169.09;4864462;29;20048;-96
2021/11/09 14:46:07;;;;;;;7.75;1.63;;;;;;;19.91;58.49;101174.97;4864229;29;20030;-95
2021/11/09 14:48:49;;;;;;;4.15;1.52;;;;;;;19.52;59.23;101175.06;4862702;29;20445;-95
2021/11/09 14:51:20;;;;;;;5.10;1.40;;;;;;;19.39;59.83;101175.34;4862532;29;20044;-96
2021/11/09 14:56:25;;;;;;;4.03;1.40;;;;;;;19.78;58.01;101170.78;4863489;29;20029;-95
2021/11/09 14:58:50;;;;;;;3.67;1.33;;;;;;;19.78;58.12;101165.47;4862983;29;20033;-94
2021/11/09 15:01:16;;;;;;;4.72;1.50;;;;;;;19.52;58.54;101170.56;4863083;29;20086;-95
2021/11/09 15:04:03;;;;;;;3.25;1.13;;;;;;;19.64;58.19;101165.91;4850068;29;20037;-96
2021/11/09 15:09:14;;;;;;;5.97;1.40;;;;;;;19.75;58.57;101164.94;4870716;29;20029;-94
2021/11/09 15:28:09;;;;;;;4.65;1.27;;;;;;;19.37;59.77;101164.88;4863121;29;20495;-96
2021/11/09 15:30:41;;;;;;;5.47;1.15;;;;;;;19.36;59.91;101155.19;4862201;29;20396;-96
2021/11/09 15:33:10;;;;;;;10.40;1.58;;;;;;;19.03;60.70;101159.97;4865112;29;20033;-96
2021/11/09 15:35:44;;;;;;;4.70;1.02;;;;;;;18.95;61.18;101151.88;4862050;29;20470;-96
2021/11/09 15:38:09;;;;;;;5.35;0.98;;;;;;;19.09;60.67;101152.44;4863801;29;20033;-96
2021/11/09 15:40:35;;;;;;;6.15;1.27;;;;;;;19.00;60.79;101160.28;4863536;29;20030;-96
2021/11/09 15:43:00;;;;;;;5.70;1.08;;;;;;;19.12;60.78;101157.47;4861605;29;20037;-96
2021/11/09 15:45:26;;;;;;;5.28;1.20;;;;;;;19.03;61.05;101149.34;4862889;29;20064;-96
2021/11/09 15:47:51;;;;;;;3.72;1.60;;;;;;;18.87;61.37;101151.72;4862730;29;20025;-96
2021/11/09 15:50:16;;;;;;;8.05;1.60;;;;;;;18.97;61.43;101155.22;4863430;29;20029;-96
2021/11/09 15:52:43;;;;;;;14.73;1.83;;;;;;;18.88;61.23;101156.09;4866790;29;20022;-94
2021/11/09 15:55:09;;;;;;;10.02;1.40;;;;;;;19.02;60.96;101160.16;4874603;29;20112;-96
2021/11/09 16:00:12;;;;;;;5.72;1.15;;;;;;;18.95;61.19;101159.84;4943339;23;20053;-96
2021/11/09 16:02:38;;;;;;;6.57;1.95;;;;;;;19.03;60.86;101149.34;4862085;29;20058;-96
2021/11/09 16:05:06;;;;;;;5.05;1.10;;;;;;;19.11;60.61;101153.94;4862319;29;20022;-96
2021/11/09 16:07:31;;;;;;;12.90;1.65;;;;;;;18.98;61.10;101156.09;4861869;29;20033;-96
2021/11/09 16:09:58;;;;;;;3.42;0.88;;;;;;;18.93;61.23;101159.16;4862098;29;20388;-96
2021/11/09 16:12:25;;;;;;;6.20;1.38;;;;;;;18.86;61.33;101158.06;4861197;29;20105;-96
2021/11/09 16:14:51;;;;;;;4.80;1.33;;;;;;;18.92;61.00;101152.16;4861794;29;20109;-96
2021/11/09 16:17:17;;;;;;;4.85;1.73;;;;;;;18.76;61.54;101163.34;4861446;29;20117;-96
2021/11/09 16:19:46;;;;;;;5.03;1.20;;;;;;;18.41;62.12;101154.03;4861556;29;20484;-96
2021/11/09 16:22:13;;;;;;;6.32;1.23;;;;;;;18.58;61.41;101159.66;4861579;29;20069;-95
2021/11/09 16:24:39;;;;;;;5.35;1.98;;;;;;;18.58;61.59;101157.00;4875189;29;20099;-95
2021/11/09 16:27:04;;;;;;;3.83;1.40;;;;;;;18.68;61.56;101163.19;4866676;29;20025;-94
2021/11/09 16:30:00;;;;;;;7.38;1.50;;;;;;;18.59;61.87;101161.34;4861542;29;20026;-94
2021/11/09 16:32:31;;;;;;;9.38;1.50;;;;;;;18.62;61.52;101164.59;4860764;29;20038;-94
2021/11/09 16:35:11;;;;;;;5.37;1.30;;;;;;;18.44;62.20;101163.56;4846869;29;20037;-94
2021/11/09 16:40:17;;;;;;;5.00;1.70;;;;;;;18.21;62.69;101163.78;5222520;23;20125;-92
2021/11/09 16:45:33;;;;;;;6.38;2.25;;;;;;;18.49;61.77;101171.97;4860802;29;20105;-91
2021/11/09 16:48:02;;;;;;;5.15;1.67;;;;;;;18.29;62.60;101172.91;4861832;29;20033;-90
2021/11/09 16:53:08;;;;;;;6.15;2.05;;;;;;;18.22;62.66;101164.63;4860961;29;20113;-92
2021/11/09 17:14:20;;;;;;;3.22;1.38;;;;;;;17.77;63.44;101179.13;4858125;29;20040;-90
2021/11/09 18:16:31;;;;;;;;;;;;;;;18.04;61.52;101207.78;4864131;29;20030;-96
2021/11/09 18:21:41;;;;;;;4.78;1.13;;;;;;;17.71;62.46;101197.38;4878174;29;20029;-96
2021/11/09 18:24:06;;;;;;;5.28;1.40;;;;;;;17.91;61.60;101196.56;4886263;29;20029;-95